sensor_id;sensor_type;location;lat;lon;timestamp;pressure;altitude;pressure_sealevel;temperature;humidity
69848;BME280;57143;55.940;37.496;2023-01-30T00:01:37;97405.38;;;-2.21;100.00
69848;BME280;57143;55.940;37.496;2023-01-30T00:04:05;97388.84;;;-2.16;100.00
69848;BME280;57143;55.940;37.496;2023-01-30T00:06:32;97367.78;;;-2.24;100.00
69848;BME280;57143;55.940;37.496;2023-01-30T00:09:00;97389.44;;;-2.21;100.00
69848;BME280;57143;55.940;37.496;2023-01-30T00:11:28;97377.56;;;-2.25;100.00
69848;BME280;57143;55.940;37.496;2023-01-30T00:13:56;97384.56;;;-2.17;100.00
69848;BME280;57143;55.940;37.496;2023-01-30T00:16:23;97385.53;;;-2.25;100.00
69848;BME280;57143;55.940;37.496;2023-01-30T00:18:50;97391.25;;;-2.21;100.00
69848;BME280;57143;55.940;37.496;2023-01-30T00:21:18;97358.91;;;-2.38;100.00
69848;BME280;57143;55.940;37.496;2023-01-30T00:23:45;97371.44;;;-2.25;100.00
69848;BME280;57143;55.940;37.496;2023-01-30T00:26:13;97330.31;;;-2.43;100.00
69848;BME280;57143;55.940;37.496;2023-01-30T00:31:19;97342.63;;;-2.35;100.00
69848;BME280;57143;55.940;37.496;2023-01-30T00:33:46;97345.09;;;-2.27;100.00
69848;BME280;57143;55.940;37.496;2023-01-30T00:36:13;97323.06;;;-2.27;100.00
69848;BME280;57143;55.940;37.496;2023-01-30T00:38:41;97331.19;;;-2.36;100.00
69848;BME280;57143;55.940;37.496;2023-01-30T00:41:08;97329.56;;;-2.37;100.00
69848;BME280;57143;55.940;37.496;2023-01-30T00:43:37;97331.81;;;-2.33;100.00
69848;BME280;57143;55.940;37.496;2023-01-30T00:46:25;97331.81;;;-2.33;100.00
69848;BME280;57143;55.940;37.496;2023-01-30T00:49:13;97300.75;;;-2.40;100.00
69848;BME280;57143;55.940;37.496;2023-01-30T00:51:40;97342.88;;;-2.23;100.00
69848;BME280;57143;55.940;37.496;2023-01-30T00:54:07;97275.75;;;-2.58;100.00
69848;BME280;57143;55.940;37.496;2023-01-30T00:56:34;97297.06;;;-2.45;100.00
69848;BME280;57143;55.940;37.496;2023-01-30T00:59:01;97299.34;;;-2.36;100.00
69848;BME280;57143;55.940;37.496;2023-01-30T01:01:30;97307.19;;;-2.21;100.00
69848;BME280;57143;55.940;37.496;2023-01-30T01:03:57;97312.44;;;-2.27;100.00
69848;BME280;57143;55.940;37.496;2023-01-30T01:06:24;97315.59;;;-2.17;100.00
69848;BME280;57143;55.940;37.496;2023-01-30T01:08:51;97309.47;;;-2.18;100.00
69848;BME280;57143;55.940;37.496;2023-01-30T01:11:18;97292.84;;;-2.33;100.00
69848;BME280;57143;55.940;37.496;2023-01-30T01:13:51;97316.53;;;-2.31;100.00
69848;BME280;57143;55.940;37.496;2023-01-30T01:16:18;97270.47;;;-2.58;100.00
69848;BME280;57143;55.940;37.496;2023-01-30T01:18:47;97307.94;;;-2.33;100.00
69848;BME280;57143;55.940;37.496;2023-01-30T01:21:14;97309.38;;;-2.31;100.00
69848;BME280;57143;55.940;37.496;2023-01-30T01:23:41;97312.09;;;-2.24;100.00
69848;BME280;57143;55.940;37.496;2023-01-30T01:26:09;97285.22;;;-2.43;100.00
69848;BME280;57143;55.940;37.496;2023-01-30T01:28:36;97298.19;;;-2.26;100.00
69848;BME280;57143;55.940;37.496;2023-01-30T01:31:07;97294.75;;;-2.20;100.00
69848;BME280;57143;55.940;37.496;2023-01-30T01:33:34;97293.88;;;-2.27;100.00
69848;BME280;57143;55.940;37.496;2023-01-30T01:36:04;97278.16;;;-2.29;100.00
69848;BME280;57143;55.940;37.496;2023-01-30T01:38:31;97245.69;;;-2.38;100.00
69848;BME280;57143;55.940;37.496;2023-01-30T01:40:58;97247.50;;;-2.38;100.00
69848;BME280;57143;55.940;37.496;2023-01-30T01:43:29;97233.03;;;-2.42;100.00
69848;BME280;57143;55.940;37.496;2023-01-30T01:45:59;97207.56;;;-2.37;100.00
69848;BME280;57143;55.940;37.496;2023-01-30T01:48:31;97220.41;;;-2.40;100.00
69848;BME280;57143;55.940;37.496;2023-01-30T01:51:03;97213.28;;;-2.33;100.00
69848;BME280;57143;55.940;37.496;2023-01-30T01:53:35;97213.31;;;-2.26;100.00
69848;BME280;57143;55.940;37.496;2023-01-30T01:56:04;97194.94;;;-2.28;100.00
69848;BME280;57143;55.940;37.496;2023-01-30T01:58:35;97183.84;;;-2.38;100.00
69848;BME280;57143;55.940;37.496;2023-01-30T02:01:03;97193.28;;;-2.29;100.00
69848;BME280;57143;55.940;37.496;2023-01-30T02:03:33;97188.19;;;-2.24;100.00
69848;BME280;57143;55.940;37.496;2023-01-30T02:06:05;97164.47;;;-2.45;100.00
69848;BME280;57143;55.940;37.496;2023-01-30T02:08:35;97180.78;;;-2.42;100.00
69848;BME280;57143;55.940;37.496;2023-01-30T02:11:07;97185.72;;;-2.39;100.00
69848;BME280;57143;55.940;37.496;2023-01-30T02:13:35;97153.25;;;-2.47;100.00
69848;BME280;57143;55.940;37.496;2023-01-30T02:16:04;97162.41;;;-2.43;100.00
69848;BME280;57143;55.940;37.496;2023-01-30T02:18:33;97163.47;;;-2.38;100.00
69848;BME280;57143;55.940;37.496;2023-01-30T02:27:13;97134.50;;;-2.39;100.00
69848;BME280;57143;55.940;37.496;2023-01-30T02:32:53;97103.09;;;-2.36;100.00
69848;BME280;57143;55.940;37.496;2023-01-30T02:35:27;97099.81;;;-2.38;100.00
69848;BME280;57143;55.940;37.496;2023-01-30T02:38:07;97039.78;;;-2.71;100.00
69848;BME280;57143;55.940;37.496;2023-01-30T02:40:47;97073.06;;;-2.56;100.00
69848;BME280;57143;55.940;37.496;2023-01-30T02:43:23;97086.53;;;-2.51;100.00
69848;BME280;57143;55.940;37.496;2023-01-30T02:45:56;97064.31;;;-2.43;100.00
69848;BME280;57143;55.940;37.496;2023-01-30T02:48:31;97058.22;;;-2.44;100.00
69848;BME280;57143;55.940;37.496;2023-01-30T02:51:05;96998.16;;;-2.71;100.00
69848;BME280;57143;55.940;37.496;2023-01-30T02:53:33;97034.75;;;-2.33;100.00
69848;BME280;57143;55.940;37.496;2023-01-30T02:56:02;97034.94;;;-2.42;100.00
69848;BME280;57143;55.940;37.496;2023-01-30T02:58:36;96987.63;;;-2.38;100.00
69848;BME280;57143;55.940;37.496;2023-01-30T03:01:39;96993.75;;;-2.38;100.00
69848;BME280;57143;55.940;37.496;2023-01-30T03:04:30;96957.25;;;-2.49;100.00
69848;BME280;57143;55.940;37.496;2023-01-30T03:07:20;96951.53;;;-2.39;100.00
69848;BME280;57143;55.940;37.496;2023-01-30T03:09:55;96939.50;;;-2.35;100.00
69848;BME280;57143;55.940;37.496;2023-01-30T03:12:34;96913.78;;;-2.35;100.00
69848;BME280;57143;55.940;37.496;2023-01-30T03:15:08;96916.22;;;-2.40;100.00
69848;BME280;57143;55.940;37.496;2023-01-30T03:17:37;96924.00;;;-2.31;100.00
69848;BME280;57143;55.940;37.496;2023-01-30T03:20:10;96911.13;;;-2.35;100.00
69848;BME280;57143;55.940;37.496;2023-01-30T03:22:38;96926.03;;;-2.33;100.00
69848;BME280;57143;55.940;37.496;2023-01-30T03:25:06;96909.09;;;-2.46;100.00
69848;BME280;57143;55.940;37.496;2023-01-30T03:27:34;96893.38;;;-2.54;100.00
69848;BME280;57143;55.940;37.496;2023-01-30T03:30:01;96868.50;;;-2.79;100.00
69848;BME280;57143;55.940;37.496;2023-01-30T03:32:29;96907.88;;;-2.37;100.00
69848;BME280;57143;55.940;37.496;2023-01-30T03:34:57;96861.38;;;-2.65;100.00
69848;BME280;57143;55.940;37.496;2023-01-30T03:37:26;96898.47;;;-2.33;100.00
69848;BME280;57143;55.940;37.496;2023-01-30T03:39:53;96902.38;;;-2.35;100.00
69848;BME280;57143;55.940;37.496;2023-01-30T03:42:20;96900.34;;;-2.33;100.00
69848;BME280;57143;55.940;37.496;2023-01-30T03:44:47;96893.38;;;-2.34;100.00
69848;BME280;57143;55.940;37.496;2023-01-30T03:47:14;96882.19;;;-2.49;100.00
69848;BME280;57143;55.940;37.496;2023-01-30T03:49:41;96893.78;;;-2.30;100.00
69848;BME280;57143;55.940;37.496;2023-01-30T03:52:08;96896.41;;;-2.24;100.00
69848;BME280;57143;55.940;37.496;2023-01-30T03:57:12;96885.03;;;-2.24;100.00
69848;BME280;57143;55.940;37.496;2023-01-30T03:59:39;96817.13;;;-2.78;100.00
69848;BME280;57143;55.940;37.496;2023-01-30T04:02:07;96879.50;;;-2.43;100.00
69848;BME280;57143;55.940;37.496;2023-01-30T04:04:34;96854.84;;;-2.56;100.00
69848;BME280;57143;55.940;37.496;2023-01-30T04:07:01;96872.19;;;-2.47;100.00
69848;BME280;57143;55.940;37.496;2023-01-30T04:09:28;96901.34;;;-2.21;100.00
69848;BME280;57143;55.940;37.496;2023-01-30T04:11:55;96897.06;;;-2.28;100.00
69848;BME280;57143;55.940;37.496;2023-01-30T04:14:24;96898.88;;;-2.36;100.00
69848;BME280;57143;55.940;37.496;2023-01-30T04:16:51;96892.75;;;-2.29;100.00
69848;BME280;57143;55.940;37.496;2023-01-30T04:19:18;96902.56;;;-2.30;100.00
69848;BME280;57143;55.940;37.496;2023-01-30T04:21:46;96891.53;;;-2.27;100.00
69848;BME280;57143;55.940;37.496;2023-01-30T04:24:13;96888.50;;;-2.44;100.00
69848;BME280;57143;55.940;37.496;2023-01-30T04:26:40;96848.31;;;-2.60;100.00
69848;BME280;57143;55.940;37.496;2023-01-30T04:29:07;96902.34;;;-2.28;100.00
69848;BME280;57143;55.940;37.496;2023-01-30T04:31:36;96878.72;;;-2.37;100.00
69848;BME280;57143;55.940;37.496;2023-01-30T04:34:03;96880.31;;;-2.29;100.00
69848;BME280;57143;55.940;37.496;2023-01-30T04:36:30;96884.19;;;-2.38;100.00
69848;BME280;57143;55.940;37.496;2023-01-30T04:38:57;96907.25;;;-2.25;100.00
69848;BME280;57143;55.940;37.496;2023-01-30T04:41:24;96891.34;;;-2.39;100.00
69848;BME280;57143;55.940;37.496;2023-01-30T04:43:52;96887.28;;;-2.28;100.00
69848;BME280;57143;55.940;37.496;2023-01-30T04:46:19;96898.28;;;-2.24;100.00
69848;BME280;57143;55.940;37.496;2023-01-30T04:48:47;96905.63;;;-2.26;100.00
69848;BME280;57143;55.940;37.496;2023-01-30T04:51:15;96896.41;;;-2.24;100.00
69848;BME280;57143;55.940;37.496;2023-01-30T04:53:42;96894.59;;;-2.30;100.00
69848;BME280;57143;55.940;37.496;2023-01-30T04:56:09;96909.69;;;-2.30;100.00
69848;BME280;57143;55.940;37.496;2023-01-30T04:58:36;96852.81;;;-2.61;100.00
69848;BME280;57143;55.940;37.496;2023-01-30T05:01:14;96874.66;;;-2.52;100.00
69848;BME280;57143;55.940;37.496;2023-01-30T05:03:41;96910.72;;;-2.31;100.00
69848;BME280;57143;55.940;37.496;2023-01-30T05:06:10;96901.31;;;-2.27;100.00
69848;BME280;57143;55.940;37.496;2023-01-30T05:08:37;96906.22;;;-2.31;100.00
69848;BME280;57143;55.940;37.496;2023-01-30T05:11:04;96869.75;;;-2.49;100.00
69848;BME280;57143;55.940;37.496;2023-01-30T05:13:32;96908.06;;;-2.38;100.00
69848;BME280;57143;55.940;37.496;2023-01-30T05:15:59;96901.13;;;-2.26;100.00
69848;BME280;57143;55.940;37.496;2023-01-30T05:18:26;96892.16;;;-2.25;100.00
69848;BME280;57143;55.940;37.496;2023-01-30T05:20:53;96865.66;;;-2.51;100.00
69848;BME280;57143;55.940;37.496;2023-01-30T05:23:22;96894.19;;;-2.27;100.00
69848;BME280;57143;55.940;37.496;2023-01-30T05:25:49;96897.88;;;-2.21;100.00
69848;BME280;57143;55.940;37.496;2023-01-30T05:28:16;96878.50;;;-2.35;100.00
69848;BME280;57143;55.940;37.496;2023-01-30T05:30:43;96878.09;;;-2.32;100.00
69848;BME280;57143;55.940;37.496;2023-01-30T05:33:10;96892.75;;;-2.23;100.00
69848;BME280;57143;55.940;37.496;2023-01-30T05:35:37;96870.94;;;-2.25;100.00
69848;BME280;57143;55.940;37.496;2023-01-30T05:38:04;96889.28;;;-2.23;100.00
69848;BME280;57143;55.940;37.496;2023-01-30T05:40:33;96891.13;;;-2.24;100.00
69848;BME280;57143;55.940;37.496;2023-01-30T05:43:00;96895.63;;;-2.18;100.00
69848;BME280;57143;55.940;37.496;2023-01-30T05:45:27;96887.25;;;-2.21;100.00
69848;BME280;57143;55.940;37.496;2023-01-30T05:47:54;96813.84;;;-2.60;100.00
69848;BME280;57143;55.940;37.496;2023-01-30T05:50:21;96892.13;;;-2.18;100.00
69848;BME280;57143;55.940;37.496;2023-01-30T05:52:48;96878.88;;;-2.38;100.00
69848;BME280;57143;55.940;37.496;2023-01-30T05:55:15;96895.22;;;-2.28;100.00
69848;BME280;57143;55.940;37.496;2023-01-30T05:57:44;96841.38;;;-2.48;100.00
69848;BME280;57143;55.940;37.496;2023-01-30T06:00:12;96858.13;;;-2.54;100.00
69848;BME280;57143;55.940;37.496;2023-01-30T06:02:39;96890.50;;;-2.26;100.00
69848;BME280;57143;55.940;37.496;2023-01-30T06:05:07;96878.88;;;-2.18;100.00
69848;BME280;57143;55.940;37.496;2023-01-30T06:07:34;96874.41;;;-2.18;100.00
69848;BME280;57143;55.940;37.496;2023-01-30T06:10:01;96859.94;;;-2.35;100.00
69848;BME280;57143;55.940;37.496;2023-01-30T06:12:29;96867.44;;;-2.19;100.00
69848;BME280;57143;55.940;37.496;2023-01-30T06:14:57;96858.31;;;-2.43;100.00
69848;BME280;57143;55.940;37.496;2023-01-30T06:17:24;96878.06;;;-2.25;100.00
69848;BME280;57143;55.940;37.496;2023-01-30T06:19:51;96874.78;;;-2.14;100.00
69848;BME280;57143;55.940;37.496;2023-01-30T06:22:19;96813.25;;;-2.56;100.00
69848;BME280;57143;55.940;37.496;2023-01-30T06:24:46;96877.47;;;-2.21;100.00
69848;BME280;57143;55.940;37.496;2023-01-30T06:27:13;96877.66;;;-2.16;100.00
69848;BME280;57143;55.940;37.496;2023-01-30T06:29:40;96873.34;;;-2.17;100.00
69848;BME280;57143;55.940;37.496;2023-01-30T06:32:09;96869.28;;;-2.19;100.00
69848;BME280;57143;55.940;37.496;2023-01-30T06:34:36;96871.50;;;-2.10;100.00
69848;BME280;57143;55.940;37.496;2023-01-30T06:37:03;96880.91;;;-2.14;100.00
69848;BME280;57143;55.940;37.496;2023-01-30T06:39:30;96838.09;;;-2.30;100.00
69848;BME280;57143;55.940;37.496;2023-01-30T06:41:57;96859.91;;;-2.09;100.00
69848;BME280;57143;55.940;37.496;2023-01-30T06:44:24;96853.38;;;-2.13;100.00
69848;BME280;57143;55.940;37.496;2023-01-30T06:46:51;96850.06;;;-2.08;100.00
69848;BME280;57143;55.940;37.496;2023-01-30T06:49:20;96849.66;;;-2.12;100.00
69848;BME280;57143;55.940;37.496;2023-01-30T06:51:47;96780.63;;;-2.56;100.00
69848;BME280;57143;55.940;37.496;2023-01-30T06:54:14;96835.19;;;-2.09;100.00
69848;BME280;57143;55.940;37.496;2023-01-30T06:56:41;96824.41;;;-2.14;100.00
69848;BME280;57143;55.940;37.496;2023-01-30T06:59:09;96831.31;;;-2.13;100.00
69848;BME280;57143;55.940;37.496;2023-01-30T07:01:36;96845.78;;;-2.03;100.00
69848;BME280;57143;55.940;37.496;2023-01-30T07:04:04;96737.44;;;-2.70;100.00
69848;BME280;57143;55.940;37.496;2023-01-30T07:06:33;96794.81;;;-2.18;100.00
69848;BME280;57143;55.940;37.496;2023-01-30T07:09:00;96821.88;;;-1.96;100.00
69848;BME280;57143;55.940;37.496;2023-01-30T07:11:27;96820.69;;;-2.00;100.00
69848;BME280;57143;55.940;37.496;2023-01-30T07:13:56;96819.66;;;-1.99;100.00
69848;BME280;57143;55.940;37.496;2023-01-30T07:16:23;96812.28;;;-1.97;100.00
69848;BME280;57143;55.940;37.496;2023-01-30T07:18:54;96822.06;;;-1.91;100.00
69848;BME280;57143;55.940;37.496;2023-01-30T07:21:23;96804.09;;;-1.89;100.00
69848;BME280;57143;55.940;37.496;2023-01-30T07:23:52;96793.47;;;-1.89;100.00
69848;BME280;57143;55.940;37.496;2023-01-30T07:26:19;96807.56;;;-1.89;100.00
69848;BME280;57143;55.940;37.496;2023-01-30T07:28:46;96784.34;;;-2.06;100.00
69848;BME280;57143;55.940;37.496;2023-01-30T07:31:13;96790.84;;;-1.96;100.00
69848;BME280;57143;55.940;37.496;2023-01-30T07:33:40;96778.78;;;-1.85;100.00
69848;BME280;57143;55.940;37.496;2023-01-30T07:36:08;96778.16;;;-1.87;100.00
69848;BME280;57143;55.940;37.496;2023-01-30T07:38:35;96740.88;;;-1.99;100.00
69848;BME280;57143;55.940;37.496;2023-01-30T07:41:04;96748.84;;;-2.05;100.00
69848;BME280;57143;55.940;37.496;2023-01-30T07:43:31;96771.44;;;-1.90;100.00
69848;BME280;57143;55.940;37.496;2023-01-30T07:45:59;96760.22;;;-1.98;100.00
69848;BME280;57143;55.940;37.496;2023-01-30T07:48:26;96770.03;;;-1.92;100.00
69848;BME280;57143;55.940;37.496;2023-01-30T07:50:54;96754.31;;;-1.94;100.00
69848;BME280;57143;55.940;37.496;2023-01-30T07:53:22;96747.66;;;-1.72;100.00
69848;BME280;57143;55.940;37.496;2023-01-30T07:55:49;96744.63;;;-1.75;100.00
69848;BME280;57143;55.940;37.496;2023-01-30T07:58:18;96743.41;;;-1.79;100.00
69848;BME280;57143;55.940;37.496;2023-01-30T08:00:45;96744.41;;;-1.74;100.00
69848;BME280;57143;55.940;37.496;2023-01-30T08:03:12;96747.00;;;-1.67;100.00
69848;BME280;57143;55.940;37.496;2023-01-30T08:05:40;96710.78;;;-1.86;100.00
69848;BME280;57143;55.940;37.496;2023-01-30T08:08:07;96716.03;;;-1.73;100.00
69848;BME280;57143;55.940;37.496;2023-01-30T08:10:34;96744.34;;;-1.67;100.00
69848;BME280;57143;55.940;37.496;2023-01-30T08:13:01;96741.13;;;-1.69;100.00
69848;BME280;57143;55.940;37.496;2023-01-30T08:15:30;96719.22;;;-1.65;100.00
69848;BME280;57143;55.940;37.496;2023-01-30T08:17:58;96721.50;;;-1.68;100.00
69848;BME280;57143;55.940;37.496;2023-01-30T08:20:26;96711.81;;;-1.56;100.00
69848;BME280;57143;55.940;37.496;2023-01-30T08:22:53;96717.53;;;-1.53;100.00
69848;BME280;57143;55.940;37.496;2023-01-30T08:25:21;96693.91;;;-1.61;100.00
69848;BME280;57143;55.940;37.496;2023-01-30T08:27:48;96698.28;;;-1.48;100.00
69848;BME280;57143;55.940;37.496;2023-01-30T08:30:16;96694.59;;;-1.47;100.00
69848;BME280;57143;55.940;37.496;2023-01-30T08:32:45;96666.63;;;-1.50;100.00
69848;BME280;57143;55.940;37.496;2023-01-30T08:35:12;96677.53;;;-1.33;100.00
69848;BME280;57143;55.940;37.496;2023-01-30T08:37:40;96624.50;;;-1.46;100.00
69848;BME280;57143;55.940;37.496;2023-01-30T08:40:09;96662.75;;;-1.23;100.00
69848;BME280;57143;55.940;37.496;2023-01-30T08:42:36;96653.72;;;-1.22;100.00
69848;BME280;57143;55.940;37.496;2023-01-30T08:45:04;96612.28;;;-1.47;100.00
69848;BME280;57143;55.940;37.496;2023-01-30T08:47:31;96654.97;;;-1.24;100.00
69848;BME280;57143;55.940;37.496;2023-01-30T08:50:01;96653.19;;;-1.30;100.00
69848;BME280;57143;55.940;37.496;2023-01-30T08:52:29;96648.78;;;-1.18;100.00
69848;BME280;57143;55.940;37.496;2023-01-30T08:54:57;96651.56;;;-1.31;100.00
69848;BME280;57143;55.940;37.496;2023-01-30T08:57:24;96657.22;;;-1.21;100.00
69848;BME280;57143;55.940;37.496;2023-01-30T08:59:51;96641.38;;;-1.34;100.00
69848;BME280;57143;55.940;37.496;2023-01-30T09:02:19;96662.91;;;-1.17;100.00
69848;BME280;57143;55.940;37.496;2023-01-30T09:04:46;96666.34;;;-1.17;100.00
69848;BME280;57143;55.940;37.496;2023-01-30T09:07:14;96664.50;;;-1.17;100.00
69848;BME280;57143;55.940;37.496;2023-01-30T09:09:41;96670.81;;;-1.11;100.00
69848;BME280;57143;55.940;37.496;2023-01-30T09:12:08;96672.78;;;-1.06;100.00
69848;BME280;57143;55.940;37.496;2023-01-30T09:14:36;96644.19;;;-1.29;100.00
69848;BME280;57143;55.940;37.496;2023-01-30T09:17:03;96676.94;;;-1.10;100.00
69848;BME280;57143;55.940;37.496;2023-01-30T09:19:30;96671.41;;;-1.09;100.00
69848;BME280;57143;55.940;37.496;2023-01-30T09:21:57;96667.25;;;-1.05;100.00
69848;BME280;57143;55.940;37.496;2023-01-30T09:24:25;96651.09;;;-1.03;100.00
69848;BME280;57143;55.940;37.496;2023-01-30T09:26:53;96674.38;;;-0.99;100.00
69848;BME280;57143;55.940;37.496;2023-01-30T09:29:22;96660.72;;;-1.02;100.00
69848;BME280;57143;55.940;37.496;2023-01-30T09:31:49;96661.25;;;-0.94;100.00
69848;BME280;57143;55.940;37.496;2023-01-30T09:34:16;96666.63;;;-1.00;100.00
69848;BME280;57143;55.940;37.496;2023-01-30T09:36:44;96676.13;;;-0.93;100.00
69848;BME280;57143;55.940;37.496;2023-01-30T09:39:11;96665.19;;;-1.03;100.00
69848;BME280;57143;55.940;37.496;2023-01-30T09:41:58;96672.94;;;-1.01;100.00
69848;BME280;57143;55.940;37.496;2023-01-30T09:44:49;96664.13;;;-0.95;100.00
69848;BME280;57143;55.940;37.496;2023-01-30T09:47:29;96650.16;;;-0.91;100.00
69848;BME280;57143;55.940;37.496;2023-01-30T09:50:06;96649.94;;;-0.89;100.00
69848;BME280;57143;55.940;37.496;2023-01-30T09:52:49;96652.22;;;-0.93;100.00
69848;BME280;57143;55.940;37.496;2023-01-30T09:55:21;96624.50;;;-1.03;100.00
69848;BME280;57143;55.940;37.496;2023-01-30T09:57:51;96657.81;;;-1.01;100.00
69848;BME280;57143;55.940;37.496;2023-01-30T10:00:24;96655.53;;;-0.97;100.00
69848;BME280;57143;55.940;37.496;2023-01-30T10:03:00;96596.44;;;-1.36;100.00
69848;BME280;57143;55.940;37.496;2023-01-30T10:05:35;96657.25;;;-0.85;100.00
69848;BME280;57143;55.940;37.496;2023-01-30T10:08:23;96650.16;;;-0.91;100.00
69848;BME280;57143;55.940;37.496;2023-01-30T10:11:00;96651.94;;;-0.85;100.00
69848;BME280;57143;55.940;37.496;2023-01-30T10:13:45;96650.97;;;-0.90;100.00
69848;BME280;57143;55.940;37.496;2023-01-30T10:16:17;96652.31;;;-0.81;100.00
69848;BME280;57143;55.940;37.496;2023-01-30T10:21:43;96646.25;;;-0.88;100.00
69848;BME280;57143;55.940;37.496;2023-01-30T10:24:34;96647.75;;;-0.74;100.00
69848;BME280;57143;55.940;37.496;2023-01-30T10:27:10;96594.03;;;-1.01;100.00
69848;BME280;57143;55.940;37.496;2023-01-30T10:29:44;96636.41;;;-0.88;100.00
69848;BME280;57143;55.940;37.496;2023-01-30T10:32:15;96640.78;;;-0.75;100.00
69848;BME280;57143;55.940;37.496;2023-01-30T10:34:46;96644.38;;;-0.88;100.00
69848;BME280;57143;55.940;37.496;2023-01-30T10:37:19;96649.97;;;-0.71;100.00
69848;BME280;57143;55.940;37.496;2023-01-30T10:39:51;96655.66;;;-0.68;100.00
69848;BME280;57143;55.940;37.496;2023-01-30T10:42:26;96644.94;;;-0.61;100.00
69848;BME280;57143;55.940;37.496;2023-01-30T10:45:01;96646.75;;;-0.62;100.00
69848;BME280;57143;55.940;37.496;2023-01-30T10:47:42;96632.88;;;-0.82;100.00
69848;BME280;57143;55.940;37.496;2023-01-30T10:50:14;96641.16;;;-0.72;100.00
69848;BME280;57143;55.940;37.496;2023-01-30T10:52:48;96626.63;;;-0.69;100.00
69848;BME280;57143;55.940;37.496;2023-01-30T10:55:27;96624.91;;;-0.64;100.00
69848;BME280;57143;55.940;37.496;2023-01-30T10:58:01;96606.09;;;-0.62;100.00
69848;BME280;57143;55.940;37.496;2023-01-30T11:00:37;96602.59;;;-0.63;100.00
69848;BME280;57143;55.940;37.496;2023-01-30T11:03:18;96586.66;;;-0.63;100.00
69848;BME280;57143;55.940;37.496;2023-01-30T11:05:48;96589.63;;;-0.71;100.00
69848;BME280;57143;55.940;37.496;2023-01-30T11:08:21;96588.72;;;-0.65;100.00
69848;BME280;57143;55.940;37.496;2023-01-30T11:10:49;96571.28;;;-0.61;100.00
69848;BME280;57143;55.940;37.496;2023-01-30T11:13:18;96550.47;;;-0.82;100.00
69848;BME280;57143;55.940;37.496;2023-01-30T11:15:48;96552.91;;;-0.62;100.00
69848;BME280;57143;55.940;37.496;2023-01-30T11:18:18;96553.31;;;-0.65;100.00
69848;BME280;57143;55.940;37.496;2023-01-30T11:20:58;96538.81;;;-0.51;100.00
69848;BME280;57143;55.940;37.496;2023-01-30T11:23:31;96511.59;;;-0.65;100.00
69848;BME280;57143;55.940;37.496;2023-01-30T11:25:58;96536.63;;;-0.54;100.00
69848;BME280;57143;55.940;37.496;2023-01-30T11:28:27;96520.41;;;-0.64;100.00
69848;BME280;57143;55.940;37.496;2023-01-30T11:31:01;96531.53;;;-0.56;100.00
69848;BME280;57143;55.940;37.496;2023-01-30T11:33:31;96508.00;;;-0.70;100.00
69848;BME280;57143;55.940;37.496;2023-01-30T11:36:00;96496.94;;;-0.85;100.00
69848;BME280;57143;55.940;37.496;2023-01-30T11:38:29;96492.94;;;-0.76;100.00
69848;BME280;57143;55.940;37.496;2023-01-30T11:41:09;96525.94;;;-0.66;100.00
69848;BME280;57143;55.940;37.496;2023-01-30T11:43:42;96518.63;;;-0.70;100.00
69848;BME280;57143;55.940;37.496;2023-01-30T11:46:14;96486.53;;;-0.87;100.00
69848;BME280;57143;55.940;37.496;2023-01-30T11:48:47;96505.56;;;-0.72;100.00
69848;BME280;57143;55.940;37.496;2023-01-30T11:51:15;96484.47;;;-0.55;100.00
69848;BME280;57143;55.940;37.496;2023-01-30T11:53:46;96497.19;;;-0.57;100.00
69848;BME280;57143;55.940;37.496;2023-01-30T11:56:15;96486.97;;;-0.60;100.00
69848;BME280;57143;55.940;37.496;2023-01-30T11:58:48;96465.44;;;-0.70;100.00
69848;BME280;57143;55.940;37.496;2023-01-30T12:01:26;96465.22;;;-0.69;100.00
69848;BME280;57143;55.940;37.496;2023-01-30T12:03:55;96461.41;;;-0.73;100.00
69848;BME280;57143;55.940;37.496;2023-01-30T12:06:24;96456.94;;;-0.61;100.00
69848;BME280;57143;55.940;37.496;2023-01-30T12:08:55;96462.34;;;-0.67;100.00
69848;BME280;57143;55.940;37.496;2023-01-30T12:11:31;96458.88;;;-0.68;100.00
69848;BME280;57143;55.940;37.496;2023-01-30T12:14:15;96443.28;;;-0.64;100.00
69848;BME280;57143;55.940;37.496;2023-01-30T12:17:01;96394.22;;;-0.80;100.00
69848;BME280;57143;55.940;37.496;2023-01-30T12:19:51;96416.81;;;-0.71;100.00
69848;BME280;57143;55.940;37.496;2023-01-30T12:22:27;96404.88;;;-0.68;100.00
69848;BME280;57143;55.940;37.496;2023-01-30T12:24:59;96378.22;;;-0.91;100.00
69848;BME280;57143;55.940;37.496;2023-01-30T12:27:44;96400.38;;;-0.68;100.00
69848;BME280;57143;55.940;37.496;2023-01-30T12:30:20;96375.38;;;-0.90;100.00
69848;BME280;57143;55.940;37.496;2023-01-30T12:32:51;96392.72;;;-0.76;100.00
69848;BME280;57143;55.940;37.496;2023-01-30T12:35:26;96350.25;;;-1.05;100.00
69848;BME280;57143;55.940;37.496;2023-01-30T12:38:02;96381.66;;;-0.73;100.00
69848;BME280;57143;55.940;37.496;2023-01-30T12:40:45;96367.16;;;-0.88;100.00
69848;BME280;57143;55.940;37.496;2023-01-30T12:43:41;96357.91;;;-0.86;100.00
69848;BME280;57143;55.940;37.496;2023-01-30T12:46:23;96350.19;;;-0.76;100.00
69848;BME280;57143;55.940;37.496;2023-01-30T12:49:05;96362.97;;;-0.96;100.00
69848;BME280;57143;55.940;37.496;2023-01-30T12:51:45;96341.53;;;-0.83;100.00
69848;BME280;57143;55.940;37.496;2023-01-30T12:54:24;96344.19;;;-0.83;100.00
69848;BME280;57143;55.940;37.496;2023-01-30T12:57:03;96333.66;;;-0.78;100.00
69848;BME280;57143;55.940;37.496;2023-01-30T12:59:39;96307.63;;;-0.87;100.00
69848;BME280;57143;55.940;37.496;2023-01-30T13:02:30;96315.25;;;-0.91;100.00
69848;BME280;57143;55.940;37.496;2023-01-30T13:05:09;96286.34;;;-1.10;100.00
69848;BME280;57143;55.940;37.496;2023-01-30T13:07:55;96310.28;;;-0.87;100.00
69848;BME280;57143;55.940;37.496;2023-01-30T13:10:29;96320.25;;;-0.83;100.00
69848;BME280;57143;55.940;37.496;2023-01-30T13:13:08;96320.03;;;-0.81;100.00
69848;BME280;57143;55.940;37.496;2023-01-30T13:15:43;96317.38;;;-0.81;100.00